createdAt,value
2023-05-08T00:01:27.017Z,58.07
2023-05-08T00:03:57.547Z,58.09
2023-05-08T00:06:27.915Z,57.97
2023-05-08T00:08:58.408Z,57.85
2023-05-08T00:11:28.659Z,57.98
2023-05-08T00:13:58.990Z,58.01
2023-05-08T00:16:29.385Z,58.19
2023-05-08T00:19:00.293Z,58.12
2023-05-08T00:21:31.133Z,58.01
2023-05-08T00:24:01.524Z,58.13
2023-05-08T00:26:31.870Z,58.16
2023-05-08T00:29:02.219Z,58.24
2023-05-08T00:31:32.621Z,58.42
2023-05-08T00:34:02.881Z,58.56
2023-05-08T00:36:33.149Z,58.86
2023-05-08T00:39:03.770Z,59.24
2023-05-08T00:41:34.387Z,59.42
2023-05-08T00:44:04.843Z,59.58
2023-05-08T00:46:35.823Z,59.30
2023-05-08T00:49:06.793Z,59.24
2023-05-08T00:51:37.519Z,59.25
2023-05-08T00:54:08.026Z,59.09
2023-05-08T00:56:39.467Z,59.01
2023-05-08T00:59:13.198Z,58.98
2023-05-08T01:01:44.372Z,59.17
2023-05-08T01:04:14.576Z,59.13
2023-05-08T01:06:44.827Z,59.05
2023-05-08T01:09:15.153Z,59.21
2023-05-08T01:11:48.442Z,59.30
2023-05-08T01:14:22.184Z,59.63
2023-05-08T01:16:59.309Z,59.57
2023-05-08T01:19:58.884Z,59.88
2023-05-08T01:22:55.924Z,60.01
2023-05-08T01:25:52.063Z,60.40
2023-05-08T01:28:43.506Z,60.53
2023-05-08T01:31:24.645Z,60.46
2023-05-08T01:34:00.607Z,60.24
2023-05-08T01:36:37.850Z,60.30
2023-05-08T01:39:14.956Z,60.22
2023-05-08T01:41:49.760Z,60.07
2023-05-08T01:44:22.333Z,59.93
2023-05-08T01:46:52.836Z,59.91
2023-05-08T01:49:26.155Z,59.97
2023-05-08T01:51:59.888Z,60.07
2023-05-08T01:54:31.117Z,60.10
2023-05-08T01:57:03.514Z,60.18
2023-05-08T01:59:35.654Z,60.04
2023-05-08T02:02:07.125Z,60.14
2023-05-08T02:04:37.745Z,60.10
2023-05-08T02:07:08.491Z,60.14
2023-05-08T02:09:39.744Z,60.40
2023-05-08T02:12:11.768Z,60.37
2023-05-08T02:14:43.849Z,59.75
2023-05-08T02:17:15.467Z,59.55
2023-05-08T02:19:46.886Z,59.55
2023-05-08T02:22:18.848Z,59.36
2023-05-08T02:24:49.559Z,59.34
2023-05-08T02:27:20.292Z,59.26
2023-05-08T02:29:51.823Z,59.34
2023-05-08T02:32:23.008Z,59.21
2023-05-08T02:35:02.343Z,58.89
2023-05-08T02:37:34.234Z,58.73
2023-05-08T02:40:07.462Z,58.50
2023-05-08T02:42:37.640Z,58.33
2023-05-08T02:45:09.948Z,57.91
2023-05-08T02:47:44.597Z,57.61
2023-05-08T02:50:20.536Z,56.95
2023-05-08T02:52:53.193Z,56.52
2023-05-08T02:55:34.208Z,56.25
2023-05-08T02:58:10.878Z,56.11
2023-05-08T03:00:45.634Z,55.77
2023-05-08T03:03:20.464Z,55.65
2023-05-08T03:05:53.870Z,55.23
2023-05-08T03:08:28.479Z,54.99
2023-05-08T03:11:02.048Z,54.39
2023-05-08T03:13:35.532Z,52.99
2023-05-08T03:16:07.463Z,52.16
2023-05-08T03:18:42.302Z,51.69
2023-05-08T03:21:13.393Z,51.35
2023-05-08T03:23:44.509Z,51.15
2023-05-08T03:26:19.824Z,51.03
2023-05-08T03:28:50.741Z,51.13
2023-05-08T03:31:22.144Z,51.26
2023-05-08T03:33:55.390Z,51.03
2023-05-08T03:36:28.607Z,50.73
2023-05-08T03:39:00.271Z,50.76
2023-05-08T03:41:31.126Z,50.75
2023-05-08T03:44:02.184Z,50.84
2023-05-08T03:46:33.389Z,50.91
2023-05-08T03:49:05.962Z,50.87
2023-05-08T03:51:38.994Z,50.82
2023-05-08T03:54:12.210Z,50.51
2023-05-08T03:56:45.639Z,50.22
2023-05-08T03:59:24.920Z,50.26
2023-05-08T04:02:00.162Z,50.42
2023-05-08T04:04:38.424Z,50.62
2023-05-08T04:07:13.307Z,50.96
2023-05-08T04:09:53.046Z,51.56
2023-05-08T04:12:27.350Z,51.73
2023-05-08T04:15:03.411Z,52.10
2023-05-08T04:17:39.412Z,52.28
2023-05-08T04:20:13.759Z,52.46
2023-05-08T04:22:44.405Z,52.86
2023-05-08T04:25:17.548Z,52.99
2023-05-08T04:27:48.499Z,53.24
2023-05-08T04:30:19.458Z,53.43
2023-05-08T04:32:51.555Z,53.72
2023-05-08T04:35:22.703Z,53.93
2023-05-08T04:37:53.360Z,53.85
2023-05-08T04:40:24.638Z,53.90
2023-05-08T04:42:54.959Z,53.85
2023-05-08T04:45:25.912Z,53.61
2023-05-08T04:47:56.489Z,53.48
2023-05-08T04:50:26.934Z,53.15
2023-05-08T04:52:57.630Z,52.35
2023-05-08T04:55:28.184Z,51.16
2023-05-08T04:57:58.606Z,47.32
2023-05-08T05:00:28.814Z,42.53
2023-05-08T05:02:59.030Z,37.55
2023-05-08T05:05:29.641Z,34.19
2023-05-08T05:07:59.984Z,30.98
2023-05-08T05:10:30.763Z,29.70
2023-05-08T05:13:01.548Z,27.72
2023-05-08T05:15:34.533Z,25.83
2023-05-08T05:18:04.910Z,25.62
2023-05-08T05:20:35.348Z,24.27
2023-05-08T05:23:06.366Z,24.14
2023-05-08T05:25:37.459Z,23.36
2023-05-08T05:28:08.230Z,21.09
2023-05-08T05:30:39.060Z,19.89
2023-05-08T05:33:09.679Z,18.89
2023-05-08T05:35:40.091Z,18.46
2023-05-08T05:38:10.559Z,18.56
2023-05-08T05:40:40.825Z,18.63
2023-05-08T05:43:11.508Z,17.60
2023-05-08T05:45:42.031Z,17.20
2023-05-08T05:48:12.711Z,16.07
2023-05-08T05:50:44.150Z,15.28
2023-05-08T05:53:15.059Z,15.25
2023-05-08T05:55:45.306Z,14.83
2023-05-08T05:58:16.633Z,14.94
2023-05-08T06:00:48.196Z,14.70
2023-05-08T06:03:18.843Z,13.87
2023-05-08T06:05:49.575Z,13.90
2023-05-08T06:08:19.869Z,13.79
2023-05-08T06:10:50.742Z,13.75
2023-05-08T06:13:21.035Z,13.89
2023-05-08T06:15:51.423Z,13.41
2023-05-08T06:18:21.752Z,13.44
2023-05-08T06:20:57.962Z,13.44
2023-05-08T06:23:28.490Z,13.60
2023-05-08T06:25:59.108Z,13.56
2023-05-08T06:28:29.694Z,13.95
2023-05-08T06:31:00.143Z,14.27
2023-05-08T06:33:30.374Z,14.06
2023-05-08T06:36:01.108Z,13.67
2023-05-08T06:38:31.745Z,13.65
2023-05-08T06:41:02.464Z,13.94
2023-05-08T06:43:32.801Z,13.97
2023-05-08T06:46:03.708Z,14.05
2023-05-08T06:48:34.328Z,13.99
2023-05-08T06:51:04.676Z,13.51
2023-05-08T06:53:35.413Z,13.67
2023-05-08T06:56:06.245Z,14.06
2023-05-08T06:58:36.805Z,14.00
2023-05-08T07:01:07.168Z,13.77
2023-05-08T07:03:37.545Z,13.32
2023-05-08T07:06:09.610Z,13.58
2023-05-08T07:08:39.884Z,15.24
2023-05-08T07:11:10.985Z,16.47
2023-05-08T07:13:41.881Z,17.55
2023-05-08T07:16:12.470Z,18.70
2023-05-08T07:18:43.281Z,19.87
2023-05-08T07:21:15.438Z,21.13
2023-05-08T07:23:45.847Z,22.27
2023-05-08T07:26:16.095Z,23.02
2023-05-08T07:28:46.576Z,23.52
2023-05-08T07:31:17.213Z,24.10
2023-05-08T07:33:47.624Z,24.85
2023-05-08T07:36:18.300Z,25.51
2023-05-08T07:38:48.873Z,25.96
2023-05-08T07:41:19.703Z,26.03
2023-05-08T07:43:50.241Z,26.45
2023-05-08T07:46:21.465Z,26.62
2023-05-08T07:48:52.014Z,27.03
2023-05-08T07:51:22.598Z,27.20
2023-05-08T07:53:54.425Z,27.37
2023-05-08T07:56:25.089Z,27.84
2023-05-08T07:58:58.452Z,27.96
2023-05-08T08:01:28.835Z,28.44
2023-05-08T08:03:59.180Z,28.41
2023-05-08T08:06:29.715Z,28.81
2023-05-08T08:08:59.965Z,29.13
2023-05-08T08:11:30.709Z,29.05
2023-05-08T08:14:01.034Z,29.46
2023-05-08T08:16:34.589Z,29.72
2023-05-08T08:19:05.095Z,29.98
2023-05-08T08:21:37.099Z,29.97
2023-05-08T08:24:08.351Z,30.09
2023-05-08T08:26:38.803Z,30.01
2023-05-08T08:29:11.705Z,30.34
2023-05-08T08:31:42.292Z,30.51
2023-05-08T08:34:12.856Z,31.00
2023-05-08T08:36:43.196Z,31.50
2023-05-08T08:39:15.232Z,31.98
2023-05-08T08:41:45.638Z,32.31
2023-05-08T08:44:16.313Z,32.48
2023-05-08T08:46:52.540Z,32.59
2023-05-08T08:49:32.213Z,32.60
2023-05-08T08:52:04.990Z,32.46
2023-05-08T08:54:36.069Z,32.55
2023-05-08T08:57:20.678Z,32.20
2023-05-08T08:59:51.833Z,32.03
2023-05-08T09:02:23.430Z,31.66
2023-05-08T09:04:53.998Z,31.44
2023-05-08T09:07:24.711Z,31.14
2023-05-08T09:09:55.421Z,30.69
2023-05-08T09:12:26.542Z,30.12
2023-05-08T09:14:57.009Z,30.01
2023-05-08T09:17:27.866Z,29.88
2023-05-08T09:19:58.474Z,29.40
2023-05-08T09:22:29.260Z,29.29
2023-05-08T09:25:00.650Z,29.27
2023-05-08T09:27:32.028Z,29.19
2023-05-08T09:30:07.399Z,29.30
2023-05-08T09:32:38.655Z,29.68
2023-05-08T09:35:10.894Z,29.91
2023-05-08T09:37:42.126Z,30.05
2023-05-08T09:40:18.140Z,30.23
2023-05-08T09:42:48.974Z,30.67
2023-05-08T09:45:31.147Z,30.91
2023-05-08T09:48:02.078Z,31.10
2023-05-08T09:50:33.300Z,31.55
2023-05-08T09:53:05.317Z,32.20
2023-05-08T09:55:50.576Z,32.83
2023-05-08T09:58:22.915Z,33.33
2023-05-08T10:00:53.280Z,34.16
2023-05-08T10:03:24.110Z,34.98
2023-05-08T10:05:54.426Z,35.59
2023-05-08T10:08:26.850Z,36.26
2023-05-08T10:11:16.572Z,36.66
2023-05-08T10:13:47.184Z,37.03
2023-05-08T10:16:19.564Z,37.57
2023-05-08T10:18:52.505Z,37.80
2023-05-08T10:21:22.838Z,38.41
2023-05-08T10:23:56.520Z,38.78
2023-05-08T10:26:31.605Z,39.20
2023-05-08T10:29:07.842Z,39.34
2023-05-08T10:31:38.608Z,39.12
2023-05-08T10:34:10.129Z,38.90
2023-05-08T10:36:41.019Z,38.92
2023-05-08T10:39:11.980Z,38.65
2023-05-08T10:41:43.369Z,38.42
2023-05-08T10:44:14.512Z,37.76
2023-05-08T10:46:50.826Z,37.15
2023-05-08T10:49:26.667Z,35.94
2023-05-08T10:52:08.431Z,35.87
2023-05-08T10:55:06.299Z,35.34
2023-05-08T10:57:37.109Z,35.21
2023-05-08T11:00:09.646Z,34.77
2023-05-08T11:02:40.629Z,34.37
2023-05-08T11:05:17.739Z,34.07
2023-05-08T11:07:58.299Z,33.78
2023-05-08T11:10:32.902Z,33.43
2023-05-08T11:13:03.629Z,32.63
2023-05-08T11:15:40.912Z,32.37
2023-05-08T11:18:12.337Z,32.29
2023-05-08T11:20:44.152Z,32.22
2023-05-08T11:23:33.311Z,32.33
2023-05-08T11:26:04.601Z,32.16
2023-05-08T11:28:39.318Z,31.92
2023-05-08T11:31:10.592Z,31.77
2023-05-08T11:33:41.626Z,31.85
2023-05-08T11:36:16.162Z,31.80
2023-05-08T11:39:07.573Z,31.67
2023-05-08T11:41:38.962Z,31.92
2023-05-08T11:44:19.995Z,32.30
2023-05-08T11:46:54.955Z,32.38
2023-05-08T11:49:29.521Z,32.44
2023-05-08T11:52:01.220Z,32.68
2023-05-08T11:54:32.433Z,32.96
2023-05-08T11:57:02.940Z,33.03
2023-05-08T11:59:37.903Z,32.86
2023-05-08T12:02:09.769Z,32.80
2023-05-08T12:04:47.589Z,32.40
2023-05-08T12:07:18.501Z,32.12
2023-05-08T12:09:49.265Z,31.86
2023-05-08T12:12:19.919Z,31.57
2023-05-08T12:14:52.271Z,31.17
2023-05-08T12:17:22.872Z,31.15
2023-05-08T12:20:04.171Z,31.23
2023-05-08T12:22:34.764Z,31.31
2023-05-08T12:25:06.822Z,31.41
2023-05-08T12:27:37.789Z,31.65
2023-05-08T12:30:10.928Z,31.88
2023-05-08T12:32:43.863Z,32.44
2023-05-08T12:35:15.439Z,32.65
2023-05-08T12:37:47.166Z,33.09
2023-05-08T12:40:34.519Z,33.48
2023-05-08T12:43:05.922Z,34.29
2023-05-08T12:45:41.054Z,34.76
2023-05-08T12:48:13.268Z,34.94
2023-05-08T12:50:47.769Z,35.41
2023-05-08T12:53:20.121Z,35.43
2023-05-08T12:55:54.543Z,35.58
2023-05-08T12:58:27.192Z,35.84
2023-05-08T13:01:09.602Z,36.17
2023-05-08T13:03:40.128Z,36.73
2023-05-08T13:06:22.906Z,36.89
2023-05-08T13:08:56.467Z,37.12
2023-05-08T13:11:34.210Z,37.57
2023-05-08T13:14:04.857Z,37.89
2023-05-08T13:16:44.764Z,38.20
2023-05-08T13:19:15.684Z,38.34
2023-05-08T13:21:47.458Z,38.78
2023-05-08T13:24:17.924Z,38.95
2023-05-08T13:26:48.319Z,39.12
2023-05-08T13:29:18.420Z,39.70
2023-05-08T13:31:49.103Z,40.39
2023-05-08T13:34:19.446Z,40.89
2023-05-08T13:36:51.255Z,41.35
2023-05-08T13:39:21.682Z,41.38
2023-05-08T13:41:51.893Z,41.29
2023-05-08T13:44:23.127Z,41.31
2023-05-08T13:46:53.476Z,41.25
2023-05-08T13:49:25.928Z,41.01
2023-05-08T13:51:57.322Z,40.70
2023-05-08T13:54:27.646Z,40.11
2023-05-08T13:56:58.333Z,40.47
2023-05-08T13:59:32.377Z,40.51
2023-05-08T14:02:03.080Z,40.56
2023-05-08T14:04:33.623Z,39.67
2023-05-08T14:07:04.051Z,39.75
2023-05-08T14:09:34.868Z,39.74
2023-05-08T14:12:05.532Z,39.73
2023-05-08T14:14:36.087Z,39.84
2023-05-08T14:17:07.740Z,39.61
2023-05-08T14:19:38.041Z,39.61
2023-05-08T14:22:08.848Z,39.81
2023-05-08T14:24:40.010Z,40.00
2023-05-08T14:27:10.447Z,39.91
2023-05-08T14:29:41.172Z,40.12
2023-05-08T14:32:11.938Z,40.17
2023-05-08T14:34:42.552Z,40.42
2023-05-08T14:37:13.456Z,40.33
2023-05-08T14:39:44.929Z,40.33
2023-05-08T14:42:23.409Z,40.27
2023-05-08T14:44:55.491Z,40.31
2023-05-08T14:47:27.218Z,40.24
2023-05-08T14:49:58.232Z,40.34
2023-05-08T14:52:28.973Z,40.39
2023-05-08T14:54:59.975Z,40.47
2023-05-08T14:57:30.687Z,40.72
2023-05-08T15:00:00.930Z,40.94
2023-05-08T15:02:31.813Z,41.03
2023-05-08T15:05:03.182Z,41.27
2023-05-08T15:07:40.691Z,41.44
2023-05-08T15:10:14.046Z,41.73
2023-05-08T15:12:44.473Z,41.82
2023-05-08T15:15:15.111Z,41.93
2023-05-08T15:17:46.251Z,42.07
2023-05-08T15:20:16.478Z,42.15
2023-05-08T15:22:47.103Z,42.40
2023-05-08T15:25:17.710Z,42.47
2023-05-08T15:27:52.413Z,42.76
2023-05-08T15:30:24.391Z,42.85
2023-05-08T15:33:00.049Z,42.95
2023-05-08T15:35:31.804Z,43.12
2023-05-08T15:38:05.658Z,43.29
2023-05-08T15:40:36.283Z,43.46
2023-05-08T15:43:06.923Z,43.73
2023-05-08T15:45:37.721Z,43.96
2023-05-08T15:48:08.872Z,43.99
2023-05-08T15:50:40.646Z,44.12
2023-05-08T15:53:11.213Z,44.33
2023-05-08T15:55:42.597Z,44.42
2023-05-08T15:58:13.055Z,44.57
2023-05-08T16:00:45.504Z,44.79
2023-05-08T16:03:16.654Z,45.05
2023-05-08T16:05:52.554Z,45.10
2023-05-08T16:08:23.160Z,45.23
2023-05-08T16:10:56.388Z,45.36
2023-05-08T16:13:29.763Z,45.52
2023-05-08T16:16:04.852Z,45.55
2023-05-08T16:18:36.719Z,45.79
2023-05-08T16:21:11.042Z,45.84
2023-05-08T16:23:41.594Z,46.12
2023-05-08T16:26:12.964Z,46.34
2023-05-08T16:28:44.392Z,46.36
2023-05-08T16:31:15.711Z,46.35
2023-05-08T16:33:46.158Z,46.51
2023-05-08T16:36:16.558Z,46.57
2023-05-08T16:38:46.943Z,46.70
2023-05-08T16:41:17.314Z,47.00
2023-05-08T16:43:49.348Z,46.92
2023-05-08T16:46:29.128Z,47.11
2023-05-08T16:49:02.485Z,47.28
2023-05-08T16:51:33.915Z,47.25
2023-05-08T16:54:04.933Z,47.61
2023-05-08T16:56:35.372Z,47.83
2023-05-08T16:59:06.411Z,47.94
2023-05-08T17:01:36.833Z,48.32
2023-05-08T17:04:07.254Z,48.70
2023-05-08T17:06:38.671Z,48.58
2023-05-08T17:09:09.010Z,48.86
2023-05-08T17:11:39.293Z,48.62
2023-05-08T17:14:09.754Z,48.63
2023-05-08T17:16:40.648Z,48.83
2023-05-08T17:19:11.696Z,48.77
2023-05-08T17:21:42.149Z,48.98
2023-05-08T17:24:12.496Z,49.04
2023-05-08T17:26:43.880Z,49.17
2023-05-08T17:29:15.685Z,49.49
2023-05-08T17:31:46.071Z,49.64
2023-05-08T17:34:17.064Z,49.61
2023-05-08T17:36:47.712Z,49.86
2023-05-08T17:39:19.652Z,49.98
2023-05-08T17:41:51.426Z,50.17
2023-05-08T17:44:22.393Z,50.41
2023-05-08T17:46:52.899Z,50.66
2023-05-08T17:49:26.353Z,50.70
2023-05-08T17:51:57.725Z,51.06
2023-05-08T17:54:29.163Z,51.45
2023-05-08T17:56:59.905Z,51.63
2023-05-08T17:59:32.502Z,51.76
2023-05-08T18:02:03.270Z,51.70
2023-05-08T18:04:34.063Z,51.90
2023-05-08T18:07:04.515Z,51.89
2023-05-08T18:09:34.970Z,51.89
2023-05-08T18:12:05.955Z,51.99
2023-05-08T18:14:36.915Z,52.14
2023-05-08T18:17:07.964Z,52.14
2023-05-08T18:19:38.358Z,52.28
2023-05-08T18:22:08.932Z,52.39
2023-05-08T18:24:39.398Z,52.56
2023-05-08T18:27:09.873Z,52.68
2023-05-08T18:29:40.734Z,52.62
2023-05-08T18:32:11.969Z,52.79
2023-05-08T18:34:42.803Z,52.92
2023-05-08T18:37:13.646Z,52.66
2023-05-08T18:39:44.012Z,52.81
2023-05-08T18:42:14.303Z,52.42
2023-05-08T18:44:45.028Z,52.56
2023-05-08T18:47:15.750Z,52.66
2023-05-08T18:49:46.139Z,52.43
2023-05-08T18:52:16.702Z,52.36
2023-05-08T18:54:48.135Z,52.41
2023-05-08T18:57:19.904Z,52.43
2023-05-08T18:59:51.868Z,52.38
2023-05-08T19:02:24.457Z,52.45
2023-05-08T19:04:55.539Z,52.27
2023-05-08T19:07:25.797Z,52.27
2023-05-08T19:09:57.431Z,52.39
2023-05-08T19:12:27.872Z,52.31
2023-05-08T19:14:58.282Z,52.32
2023-05-08T19:17:28.525Z,52.55
2023-05-08T19:19:59.124Z,52.74
2023-05-08T19:22:31.151Z,52.87
2023-05-08T19:25:08.499Z,53.06
2023-05-08T19:27:39.613Z,53.39
2023-05-08T19:30:13.037Z,53.53
2023-05-08T19:32:43.850Z,53.79
2023-05-08T19:35:15.488Z,53.83
2023-05-08T19:37:45.828Z,53.95
2023-05-08T19:40:17.785Z,54.17
2023-05-08T19:42:49.062Z,54.16
2023-05-08T19:45:19.349Z,54.08
2023-05-08T19:47:49.980Z,54.13
2023-05-08T19:50:20.527Z,54.04
2023-05-08T19:52:51.548Z,54.26
2023-05-08T19:55:22.201Z,54.33
2023-05-08T19:57:52.894Z,54.41
2023-05-08T20:00:23.268Z,54.85
2023-05-08T20:02:58.111Z,54.37
2023-05-08T20:05:30.799Z,54.25
2023-05-08T20:08:04.329Z,54.24
2023-05-08T20:10:37.211Z,54.22
2023-05-08T20:13:15.141Z,54.28
2023-05-08T20:15:46.994Z,54.34
2023-05-08T20:18:17.248Z,54.28
2023-05-08T20:20:50.769Z,54.44
2023-05-08T20:23:24.245Z,54.65
2023-05-08T20:25:56.421Z,54.59
2023-05-08T20:28:27.981Z,54.55
2023-05-08T20:30:59.259Z,54.64
2023-05-08T20:33:30.984Z,54.57
2023-05-08T20:36:01.987Z,54.87
2023-05-08T20:38:33.519Z,54.80
2023-05-08T20:41:04.566Z,54.75
2023-05-08T20:43:35.053Z,54.94
2023-05-08T20:46:05.383Z,54.89
2023-05-08T20:48:36.725Z,54.81
2023-05-08T20:51:09.689Z,54.91
2023-05-08T20:53:40.449Z,54.94
2023-05-08T20:56:10.767Z,54.98
2023-05-08T20:58:41.337Z,55.04
2023-05-08T21:01:14.102Z,54.97
2023-05-08T21:03:44.400Z,55.07
2023-05-08T21:06:14.775Z,55.05
2023-05-08T21:08:45.121Z,55.14
2023-05-08T21:11:16.094Z,55.14
2023-05-08T21:13:46.373Z,55.32
2023-05-08T21:16:16.906Z,55.32
2023-05-08T21:18:47.489Z,55.47
2023-05-08T21:21:19.739Z,55.45
2023-05-08T21:23:53.994Z,55.49
2023-05-08T21:26:24.519Z,55.50
2023-05-08T21:40:10.464Z,55.73
2023-05-08T21:42:41.020Z,55.80
2023-05-08T21:45:13.128Z,55.66
2023-05-08T21:47:43.708Z,55.80
2023-05-08T21:50:14.331Z,55.81
2023-05-08T21:52:44.862Z,55.89
2023-05-08T21:55:15.988Z,55.81
2023-05-08T21:57:46.647Z,55.86
2023-05-08T22:00:19.885Z,55.90
2023-05-08T22:02:50.146Z,55.94
2023-05-08T22:05:20.436Z,55.93
2023-05-08T22:07:50.864Z,55.99
2023-05-08T22:10:21.865Z,55.92
2023-05-08T22:12:52.359Z,56.19
2023-05-08T22:15:29.785Z,56.13
2023-05-08T22:18:02.257Z,56.20
2023-05-08T22:20:34.239Z,56.47
2023-05-08T22:23:04.585Z,56.38
2023-05-08T22:25:34.802Z,56.41
2023-05-08T22:28:06.406Z,56.40
2023-05-08T22:30:36.486Z,56.38
2023-05-08T22:33:06.959Z,56.34
2023-05-08T22:35:37.648Z,56.29
2023-05-08T22:38:07.923Z,56.19
2023-05-08T22:40:38.185Z,56.23
2023-05-08T22:43:08.425Z,56.03
2023-05-08T22:45:39.219Z,56.06
2023-05-08T22:48:10.422Z,55.96
2023-05-08T22:50:40.653Z,55.87
2023-05-08T22:53:11.294Z,55.87
2023-05-08T22:55:42.200Z,55.85
2023-05-08T22:58:13.157Z,55.78
2023-05-08T23:00:44.270Z,55.81
2023-05-08T23:03:16.610Z,55.79
2023-05-08T23:05:46.817Z,55.80
2023-05-08T23:08:17.292Z,55.78
2023-05-08T23:10:47.723Z,55.81
2023-05-08T23:13:18.850Z,55.69
2023-05-08T23:15:49.150Z,55.77
2023-05-08T23:18:19.662Z,55.77
2023-05-08T23:20:50.071Z,55.72
2023-05-08T23:23:21.334Z,55.72
2023-05-08T23:25:51.703Z,55.70
2023-05-08T23:28:22.066Z,55.71
2023-05-08T23:30:52.276Z,55.53
2023-05-08T23:33:23.265Z,55.56
2023-05-08T23:35:53.752Z,55.79
2023-05-08T23:38:24.272Z,55.63
2023-05-08T23:40:55.717Z,55.72
2023-05-08T23:43:26.205Z,55.77
2023-05-08T23:45:56.705Z,55.79
2023-05-08T23:48:26.988Z,55.76
2023-05-08T23:50:57.933Z,55.73
2023-05-08T23:53:28.901Z,55.88
2023-05-08T23:55:59.172Z,55.94
2023-05-08T23:58:30.036Z,55.81
